Terminal Aerodrome Forecast
Issued by NWS Mt. Holly, NJ

Home | Current Version | Previous Version | Text Only | Print | Product List | Glossary On
Versions: 1 2 3 4 5 6 7 8 9 10 11 12 13 14 15 16 17 18 19 20 21 22 23 24 25 26 27
878
FTUS41 KPHI 060537
TAFTTN
TAF
KTTN 060537Z 0606/0706 06007KT P6SM BKN019 OVC024
     FM060800 05008KT 4SM -RA BR OVC015
     FM061100 05010KT 3SM RA BR OVC009
     FM061800 06012KT 5SM -RA BR OVC009=

USA.gov is the U.S. government's official web portal to all federal, state and local government web resources and services.